sensor_id;sensor_type;location;lat;lon;timestamp;P1;durP1;ratioP1;P2;durP2;ratioP2
68455;SDS011;55437;55.046;38.838;2022-09-21T00:02:02;16.83;;;5.78;;
68455;SDS011;55437;55.046;38.838;2022-09-21T00:04:27;13.35;;;5.60;;
68455;SDS011;55437;55.046;38.838;2022-09-21T00:06:53;12.25;;;5.30;;
68455;SDS011;55437;55.046;38.838;2022-09-21T00:09:19;15.90;;;5.90;;
68455;SDS011;55437;55.046;38.838;2022-09-21T00:11:44;15.77;;;5.88;;
68455;SDS011;55437;55.046;38.838;2022-09-21T00:14:11;13.82;;;5.55;;
68455;SDS011;55437;55.046;38.838;2022-09-21T00:16:40;16.92;;;6.55;;
68455;SDS011;55437;55.046;38.838;2022-09-21T00:19:10;19.52;;;6.50;;
68455;SDS011;55437;55.046;38.838;2022-09-21T00:21:36;14.98;;;7.00;;
68455;SDS011;55437;55.046;38.838;2022-09-21T00:24:06;22.77;;;6.97;;
68455;SDS011;55437;55.046;38.838;2022-09-21T00:26:34;17.35;;;6.45;;
68455;SDS011;55437;55.046;38.838;2022-09-21T00:29:19;18.52;;;6.22;;
68455;SDS011;55437;55.046;38.838;2022-09-21T00:31:54;18.38;;;5.78;;
68455;SDS011;55437;55.046;38.838;2022-09-21T00:34:23;16.63;;;6.93;;
68455;SDS011;55437;55.046;38.838;2022-09-21T00:36:57;28.40;;;7.30;;
68455;SDS011;55437;55.046;38.838;2022-09-21T00:39:51;16.65;;;6.47;;
68455;SDS011;55437;55.046;38.838;2022-09-21T00:42:27;23.67;;;7.65;;
68455;SDS011;55437;55.046;38.838;2022-09-21T00:44:55;19.63;;;7.03;;
68455;SDS011;55437;55.046;38.838;2022-09-21T00:50:15;17.00;;;7.03;;
68455;SDS011;55437;55.046;38.838;2022-09-21T00:52:54;17.45;;;6.88;;
68455;SDS011;55437;55.046;38.838;2022-09-21T00:55:33;26.15;;;8.88;;
68455;SDS011;55437;55.046;38.838;2022-09-21T00:58:04;28.38;;;7.53;;
68455;SDS011;55437;55.046;38.838;2022-09-21T01:00:37;20.50;;;7.43;;
68455;SDS011;55437;55.046;38.838;2022-09-21T01:03:04;22.83;;;7.45;;
68455;SDS011;55437;55.046;38.838;2022-09-21T01:05:32;20.92;;;8.38;;
68455;SDS011;55437;55.046;38.838;2022-09-21T01:07:59;20.98;;;7.28;;
68455;SDS011;55437;55.046;38.838;2022-09-21T01:10:29;22.30;;;7.07;;
68455;SDS011;55437;55.046;38.838;2022-09-21T01:13:09;20.45;;;6.70;;
68455;SDS011;55437;55.046;38.838;2022-09-21T01:29:26;22.77;;;7.45;;
68455;SDS011;55437;55.046;38.838;2022-09-21T01:35:09;24.65;;;8.23;;
68455;SDS011;55437;55.046;38.838;2022-09-21T01:38:04;17.73;;;7.63;;
68455;SDS011;55437;55.046;38.838;2022-09-21T01:40:40;20.15;;;7.10;;
68455;SDS011;55437;55.046;38.838;2022-09-21T01:43:12;21.73;;;7.05;;
68455;SDS011;55437;55.046;38.838;2022-09-21T01:45:45;17.65;;;7.30;;
68455;SDS011;55437;55.046;38.838;2022-09-21T01:48:16;18.27;;;8.13;;
68455;SDS011;55437;55.046;38.838;2022-09-21T01:50:45;19.13;;;7.45;;
68455;SDS011;55437;55.046;38.838;2022-09-21T01:53:17;19.27;;;8.00;;
68455;SDS011;55437;55.046;38.838;2022-09-21T01:55:55;15.65;;;7.40;;
68455;SDS011;55437;55.046;38.838;2022-09-21T01:58:35;21.35;;;8.10;;
68455;SDS011;55437;55.046;38.838;2022-09-21T02:01:18;18.92;;;7.43;;
68455;SDS011;55437;55.046;38.838;2022-09-21T02:03:55;14.90;;;7.32;;
68455;SDS011;55437;55.046;38.838;2022-09-21T02:06:24;19.35;;;7.72;;
68455;SDS011;55437;55.046;38.838;2022-09-21T02:08:52;19.98;;;8.30;;
68455;SDS011;55437;55.046;38.838;2022-09-21T02:11:18;19.08;;;7.50;;
68455;SDS011;55437;55.046;38.838;2022-09-21T02:13:44;19.85;;;7.22;;
68455;SDS011;55437;55.046;38.838;2022-09-21T02:16:24;19.55;;;6.93;;
68455;SDS011;55437;55.046;38.838;2022-09-21T02:24:31;17.05;;;8.15;;
68455;SDS011;55437;55.046;38.838;2022-09-21T02:29:57;17.77;;;7.05;;
68455;SDS011;55437;55.046;38.838;2022-09-21T02:40:42;19.65;;;7.50;;
68455;SDS011;55437;55.046;38.838;2022-09-21T02:43:36;19.15;;;7.03;;
68455;SDS011;55437;55.046;38.838;2022-09-21T02:46:12;17.88;;;7.80;;
68455;SDS011;55437;55.046;38.838;2022-09-21T02:48:46;18.25;;;7.55;;
68455;SDS011;55437;55.046;38.838;2022-09-21T02:51:16;17.88;;;7.10;;
68455;SDS011;55437;55.046;38.838;2022-09-21T02:53:46;18.95;;;7.13;;
68455;SDS011;55437;55.046;38.838;2022-09-21T02:56:16;15.75;;;7.70;;
68455;SDS011;55437;55.046;38.838;2022-09-21T02:58:44;16.38;;;8.50;;
68455;SDS011;55437;55.046;38.838;2022-09-21T03:01:14;15.90;;;7.43;;
68455;SDS011;55437;55.046;38.838;2022-09-21T03:03:42;20.50;;;7.38;;
68455;SDS011;55437;55.046;38.838;2022-09-21T03:06:07;19.65;;;6.68;;
68455;SDS011;55437;55.046;38.838;2022-09-21T03:08:34;16.58;;;7.47;;
68455;SDS011;55437;55.046;38.838;2022-09-21T03:10:59;17.25;;;7.32;;
68455;SDS011;55437;55.046;38.838;2022-09-21T03:13:25;18.67;;;7.95;;
68455;SDS011;55437;55.046;38.838;2022-09-21T03:15:57;17.00;;;6.93;;
68455;SDS011;55437;55.046;38.838;2022-09-21T03:18:24;18.30;;;6.85;;
68455;SDS011;55437;55.046;38.838;2022-09-21T03:20:50;16.23;;;7.05;;
68455;SDS011;55437;55.046;38.838;2022-09-21T03:23:16;19.83;;;7.90;;
68455;SDS011;55437;55.046;38.838;2022-09-21T03:25:45;16.33;;;7.50;;
68455;SDS011;55437;55.046;38.838;2022-09-21T03:28:11;17.02;;;6.65;;
68455;SDS011;55437;55.046;38.838;2022-09-21T03:30:38;15.27;;;6.60;;
68455;SDS011;55437;55.046;38.838;2022-09-21T03:33:03;23.10;;;7.53;;
68455;SDS011;55437;55.046;38.838;2022-09-21T03:35:31;25.67;;;12.00;;
68455;SDS011;55437;55.046;38.838;2022-09-21T03:40:26;22.58;;;9.32;;
68455;SDS011;55437;55.046;38.838;2022-09-21T03:42:53;18.35;;;9.75;;
68455;SDS011;55437;55.046;38.838;2022-09-21T03:45:19;16.67;;;7.15;;
68455;SDS011;55437;55.046;38.838;2022-09-21T03:47:55;17.73;;;6.90;;
68455;SDS011;55437;55.046;38.838;2022-09-21T03:50:22;16.05;;;7.65;;
68455;SDS011;55437;55.046;38.838;2022-09-21T03:52:49;18.15;;;7.20;;
68455;SDS011;55437;55.046;38.838;2022-09-21T03:55:14;23.00;;;8.10;;
68455;SDS011;55437;55.046;38.838;2022-09-21T03:57:40;16.42;;;7.28;;
68455;SDS011;55437;55.046;38.838;2022-09-21T04:00:07;20.60;;;8.05;;
68455;SDS011;55437;55.046;38.838;2022-09-21T04:02:36;21.80;;;7.30;;
68455;SDS011;55437;55.046;38.838;2022-09-21T04:05:03;16.50;;;7.07;;
68455;SDS011;55437;55.046;38.838;2022-09-21T04:07:31;17.15;;;7.03;;
68455;SDS011;55437;55.046;38.838;2022-09-21T04:09:59;15.52;;;7.03;;
68455;SDS011;55437;55.046;38.838;2022-09-21T04:12:32;18.42;;;6.68;;
68455;SDS011;55437;55.046;38.838;2022-09-21T04:15:01;18.13;;;7.20;;
68455;SDS011;55437;55.046;38.838;2022-09-21T04:17:29;15.73;;;7.10;;
68455;SDS011;55437;55.046;38.838;2022-09-21T04:19:55;15.35;;;7.05;;
68455;SDS011;55437;55.046;38.838;2022-09-21T04:22:21;22.23;;;7.20;;
68455;SDS011;55437;55.046;38.838;2022-09-21T04:24:49;17.42;;;7.35;;
68455;SDS011;55437;55.046;38.838;2022-09-21T04:27:15;17.02;;;6.88;;
68455;SDS011;55437;55.046;38.838;2022-09-21T04:29:40;19.85;;;6.85;;
68455;SDS011;55437;55.046;38.838;2022-09-21T04:32:06;14.73;;;7.05;;
68455;SDS011;55437;55.046;38.838;2022-09-21T04:34:32;16.13;;;7.18;;
68455;SDS011;55437;55.046;38.838;2022-09-21T04:36:58;16.95;;;7.32;;
68455;SDS011;55437;55.046;38.838;2022-09-21T04:39:24;14.18;;;6.63;;
68455;SDS011;55437;55.046;38.838;2022-09-21T04:41:50;12.90;;;6.70;;
68455;SDS011;55437;55.046;38.838;2022-09-21T04:44:16;14.88;;;6.85;;
68455;SDS011;55437;55.046;38.838;2022-09-21T04:46:44;15.32;;;6.25;;
68455;SDS011;55437;55.046;38.838;2022-09-21T04:49:10;13.75;;;6.63;;
68455;SDS011;55437;55.046;38.838;2022-09-21T04:51:36;16.20;;;6.18;;
68455;SDS011;55437;55.046;38.838;2022-09-21T04:54:02;13.30;;;6.50;;
68455;SDS011;55437;55.046;38.838;2022-09-21T04:56:28;15.18;;;7.25;;
68455;SDS011;55437;55.046;38.838;2022-09-21T04:58:54;13.73;;;6.70;;
68455;SDS011;55437;55.046;38.838;2022-09-21T05:01:20;15.82;;;6.38;;
68455;SDS011;55437;55.046;38.838;2022-09-21T05:03:46;16.55;;;7.22;;
68455;SDS011;55437;55.046;38.838;2022-09-21T05:06:12;17.00;;;6.32;;
68455;SDS011;55437;55.046;38.838;2022-09-21T05:08:39;14.25;;;7.13;;
68455;SDS011;55437;55.046;38.838;2022-09-21T05:11:24;16.25;;;6.25;;
68455;SDS011;55437;55.046;38.838;2022-09-21T05:13:50;15.25;;;6.43;;
68455;SDS011;55437;55.046;38.838;2022-09-21T05:16:16;12.75;;;5.93;;
68455;SDS011;55437;55.046;38.838;2022-09-21T05:18:43;12.23;;;5.43;;
68455;SDS011;55437;55.046;38.838;2022-09-21T05:21:10;11.30;;;5.25;;
68455;SDS011;55437;55.046;38.838;2022-09-21T05:23:39;9.45;;;4.93;;
68455;SDS011;55437;55.046;38.838;2022-09-21T05:26:05;10.63;;;5.07;;
68455;SDS011;55437;55.046;38.838;2022-09-21T05:28:34;10.40;;;4.70;;
68455;SDS011;55437;55.046;38.838;2022-09-21T05:31:15;10.32;;;4.43;;
68455;SDS011;55437;55.046;38.838;2022-09-21T05:36:44;8.40;;;4.82;;
68455;SDS011;55437;55.046;38.838;2022-09-21T05:39:19;9.40;;;4.55;;
68455;SDS011;55437;55.046;38.838;2022-09-21T05:41:45;11.80;;;4.95;;
68455;SDS011;55437;55.046;38.838;2022-09-21T05:44:11;11.15;;;4.63;;
68455;SDS011;55437;55.046;38.838;2022-09-21T05:46:58;10.80;;;4.22;;
68455;SDS011;55437;55.046;38.838;2022-09-21T05:54:48;8.35;;;3.60;;
68455;SDS011;55437;55.046;38.838;2022-09-21T06:00:40;9.45;;;3.55;;
68455;SDS011;55437;55.046;38.838;2022-09-21T06:05:56;8.52;;;3.72;;
68455;SDS011;55437;55.046;38.838;2022-09-21T06:08:23;8.10;;;3.10;;
68455;SDS011;55437;55.046;38.838;2022-09-21T06:10:50;8.93;;;3.55;;
68455;SDS011;55437;55.046;38.838;2022-09-21T06:13:16;8.00;;;3.67;;
68455;SDS011;55437;55.046;38.838;2022-09-21T06:15:42;8.90;;;3.58;;
68455;SDS011;55437;55.046;38.838;2022-09-21T06:18:08;8.32;;;2.90;;
68455;SDS011;55437;55.046;38.838;2022-09-21T06:20:34;9.50;;;3.42;;
68455;SDS011;55437;55.046;38.838;2022-09-21T06:23:01;7.43;;;3.10;;
68455;SDS011;55437;55.046;38.838;2022-09-21T06:25:30;8.80;;;3.47;;
68455;SDS011;55437;55.046;38.838;2022-09-21T06:28:08;7.97;;;2.60;;
68455;SDS011;55437;55.046;38.838;2022-09-21T06:30:38;7.95;;;2.75;;
68455;SDS011;55437;55.046;38.838;2022-09-21T06:33:06;7.88;;;3.10;;
68455;SDS011;55437;55.046;38.838;2022-09-21T06:35:33;6.82;;;2.85;;
68455;SDS011;55437;55.046;38.838;2022-09-21T06:38:01;7.55;;;2.70;;
68455;SDS011;55437;55.046;38.838;2022-09-21T06:40:32;7.38;;;2.80;;
68455;SDS011;55437;55.046;38.838;2022-09-21T06:43:00;7.10;;;2.67;;
68455;SDS011;55437;55.046;38.838;2022-09-21T06:45:27;8.98;;;3.05;;
68455;SDS011;55437;55.046;38.838;2022-09-21T06:47:54;7.70;;;3.35;;
68455;SDS011;55437;55.046;38.838;2022-09-21T06:50:20;6.85;;;2.67;;
68455;SDS011;55437;55.046;38.838;2022-09-21T06:52:46;7.40;;;3.05;;
68455;SDS011;55437;55.046;38.838;2022-09-21T06:55:12;7.20;;;2.80;;
68455;SDS011;55437;55.046;38.838;2022-09-21T06:57:38;7.72;;;2.60;;
68455;SDS011;55437;55.046;38.838;2022-09-21T07:00:05;7.55;;;3.08;;
68455;SDS011;55437;55.046;38.838;2022-09-21T07:02:33;7.93;;;2.72;;
68455;SDS011;55437;55.046;38.838;2022-09-21T07:04:59;8.82;;;3.30;;
68455;SDS011;55437;55.046;38.838;2022-09-21T07:07:27;7.75;;;3.40;;
68455;SDS011;55437;55.046;38.838;2022-09-21T07:09:56;7.50;;;3.58;;
68455;SDS011;55437;55.046;38.838;2022-09-21T07:12:24;7.68;;;3.53;;
68455;SDS011;55437;55.046;38.838;2022-09-21T07:14:50;8.60;;;3.92;;
68455;SDS011;55437;55.046;38.838;2022-09-21T07:17:16;8.70;;;3.72;;
68455;SDS011;55437;55.046;38.838;2022-09-21T07:19:42;8.93;;;3.13;;
68455;SDS011;55437;55.046;38.838;2022-09-21T07:22:08;9.00;;;3.80;;
68455;SDS011;55437;55.046;38.838;2022-09-21T07:24:33;10.27;;;4.07;;
68455;SDS011;55437;55.046;38.838;2022-09-21T07:26:59;9.50;;;5.45;;
68455;SDS011;55437;55.046;38.838;2022-09-21T07:29:25;8.98;;;4.70;;
68455;SDS011;55437;55.046;38.838;2022-09-21T07:31:51;13.43;;;4.82;;
68455;SDS011;55437;55.046;38.838;2022-09-21T07:34:17;9.73;;;4.35;;
68455;SDS011;55437;55.046;38.838;2022-09-21T07:36:42;9.52;;;4.65;;
68455;SDS011;55437;55.046;38.838;2022-09-21T07:39:08;9.50;;;4.22;;
68455;SDS011;55437;55.046;38.838;2022-09-21T07:41:34;9.55;;;4.43;;
68455;SDS011;55437;55.046;38.838;2022-09-21T07:44:01;8.73;;;4.07;;
68455;SDS011;55437;55.046;38.838;2022-09-21T07:46:27;7.82;;;3.78;;
68455;SDS011;55437;55.046;38.838;2022-09-21T07:48:54;8.88;;;4.25;;
68455;SDS011;55437;55.046;38.838;2022-09-21T07:51:21;10.82;;;4.10;;
68455;SDS011;55437;55.046;38.838;2022-09-21T07:53:52;9.77;;;4.40;;
68455;SDS011;55437;55.046;38.838;2022-09-21T07:56:18;13.77;;;4.03;;
68455;SDS011;55437;55.046;38.838;2022-09-21T07:58:44;10.68;;;3.78;;
68455;SDS011;55437;55.046;38.838;2022-09-21T08:01:29;9.07;;;3.63;;
68455;SDS011;55437;55.046;38.838;2022-09-21T08:03:55;11.93;;;3.92;;
68455;SDS011;55437;55.046;38.838;2022-09-21T08:06:23;8.13;;;3.80;;
68455;SDS011;55437;55.046;38.838;2022-09-21T08:08:50;8.95;;;3.90;;
68455;SDS011;55437;55.046;38.838;2022-09-21T08:11:17;9.43;;;4.43;;
68455;SDS011;55437;55.046;38.838;2022-09-21T08:13:46;13.38;;;4.20;;
68455;SDS011;55437;55.046;38.838;2022-09-21T08:16:13;9.80;;;4.55;;
68455;SDS011;55437;55.046;38.838;2022-09-21T08:18:39;10.38;;;4.13;;
68455;SDS011;55437;55.046;38.838;2022-09-21T08:21:06;10.30;;;3.65;;
68455;SDS011;55437;55.046;38.838;2022-09-21T08:23:34;10.45;;;4.03;;
68455;SDS011;55437;55.046;38.838;2022-09-21T08:26:05;10.50;;;4.72;;
68455;SDS011;55437;55.046;38.838;2022-09-21T08:28:35;9.65;;;3.97;;
68455;SDS011;55437;55.046;38.838;2022-09-21T08:31:02;9.50;;;4.05;;
68455;SDS011;55437;55.046;38.838;2022-09-21T08:33:30;7.93;;;3.88;;
68455;SDS011;55437;55.046;38.838;2022-09-21T08:35:57;11.20;;;3.90;;
68455;SDS011;55437;55.046;38.838;2022-09-21T08:38:24;8.43;;;4.00;;
68455;SDS011;55437;55.046;38.838;2022-09-21T08:40:51;10.02;;;3.80;;
68455;SDS011;55437;55.046;38.838;2022-09-21T08:43:34;9.68;;;3.85;;
68455;SDS011;55437;55.046;38.838;2022-09-21T08:46:08;9.07;;;3.17;;
68455;SDS011;55437;55.046;38.838;2022-09-21T08:48:59;8.48;;;3.85;;
68455;SDS011;55437;55.046;38.838;2022-09-21T08:51:42;12.85;;;5.00;;
68455;SDS011;55437;55.046;38.838;2022-09-21T08:54:45;8.48;;;3.88;;
68455;SDS011;55437;55.046;38.838;2022-09-21T08:57:36;14.80;;;7.53;;
68455;SDS011;55437;55.046;38.838;2022-09-21T09:00:06;9.88;;;4.28;;
68455;SDS011;55437;55.046;38.838;2022-09-21T09:05:48;8.55;;;3.30;;
68455;SDS011;55437;55.046;38.838;2022-09-21T09:11:27;7.85;;;3.38;;
68455;SDS011;55437;55.046;38.838;2022-09-21T09:19:51;7.65;;;3.50;;
68455;SDS011;55437;55.046;38.838;2022-09-21T09:22:30;8.43;;;3.50;;
68455;SDS011;55437;55.046;38.838;2022-09-21T09:25:03;9.43;;;3.28;;
68455;SDS011;55437;55.046;38.838;2022-09-21T09:27:38;8.80;;;2.85;;
68455;SDS011;55437;55.046;38.838;2022-09-21T09:30:20;8.77;;;3.20;;
68455;SDS011;55437;55.046;38.838;2022-09-21T09:33:06;7.30;;;3.35;;
68455;SDS011;55437;55.046;38.838;2022-09-21T09:35:50;8.40;;;3.15;;
68455;SDS011;55437;55.046;38.838;2022-09-21T09:41:11;8.13;;;2.88;;
68455;SDS011;55437;55.046;38.838;2022-09-21T09:43:56;7.70;;;3.10;;
68455;SDS011;55437;55.046;38.838;2022-09-21T09:49:33;7.05;;;2.65;;
68455;SDS011;55437;55.046;38.838;2022-09-21T09:52:08;7.55;;;2.75;;
68455;SDS011;55437;55.046;38.838;2022-09-21T09:54:37;6.93;;;3.00;;
68455;SDS011;55437;55.046;38.838;2022-09-21T09:57:04;7.30;;;2.95;;
68455;SDS011;55437;55.046;38.838;2022-09-21T10:02:01;6.63;;;2.60;;
68455;SDS011;55437;55.046;38.838;2022-09-21T10:05:00;7.50;;;2.85;;
68455;SDS011;55437;55.046;38.838;2022-09-21T10:12:55;8.38;;;3.00;;
68455;SDS011;55437;55.046;38.838;2022-09-21T10:15:42;7.57;;;3.10;;
68455;SDS011;55437;55.046;38.838;2022-09-21T10:20:57;7.68;;;2.97;;
68455;SDS011;55437;55.046;38.838;2022-09-21T10:23:29;8.65;;;2.88;;
68455;SDS011;55437;55.046;38.838;2022-09-21T10:26:00;8.35;;;2.78;;
68455;SDS011;55437;55.046;38.838;2022-09-21T10:28:36;8.18;;;2.63;;
68455;SDS011;55437;55.046;38.838;2022-09-21T10:33:42;8.57;;;2.80;;
68455;SDS011;55437;55.046;38.838;2022-09-21T10:36:26;8.43;;;2.40;;
68455;SDS011;55437;55.046;38.838;2022-09-21T10:38:54;7.53;;;3.55;;
68455;SDS011;55437;55.046;38.838;2022-09-21T10:41:20;10.73;;;3.28;;
68455;SDS011;55437;55.046;38.838;2022-09-21T10:43:46;8.85;;;3.60;;
68455;SDS011;55437;55.046;38.838;2022-09-21T10:46:16;8.80;;;3.08;;
68455;SDS011;55437;55.046;38.838;2022-09-21T10:48:56;10.23;;;3.45;;
68455;SDS011;55437;55.046;38.838;2022-09-21T10:51:26;11.18;;;3.10;;
68455;SDS011;55437;55.046;38.838;2022-09-21T10:53:54;9.68;;;2.70;;
68455;SDS011;55437;55.046;38.838;2022-09-21T10:56:24;8.75;;;3.05;;
68455;SDS011;55437;55.046;38.838;2022-09-21T11:01:35;7.63;;;2.75;;
68455;SDS011;55437;55.046;38.838;2022-09-21T11:09:38;9.38;;;3.10;;
68455;SDS011;55437;55.046;38.838;2022-09-21T11:14:57;9.80;;;2.80;;
68455;SDS011;55437;55.046;38.838;2022-09-21T11:28:27;8.68;;;3.38;;
68455;SDS011;55437;55.046;38.838;2022-09-21T11:39:12;7.70;;;3.47;;
68455;SDS011;55437;55.046;38.838;2022-09-21T11:41:57;9.70;;;3.60;;
68455;SDS011;55437;55.046;38.838;2022-09-21T11:47:15;14.52;;;4.30;;
68455;SDS011;55437;55.046;38.838;2022-09-21T11:53:14;11.70;;;3.33;;
68455;SDS011;55437;55.046;38.838;2022-09-21T12:15:08;9.85;;;3.45;;
68455;SDS011;55437;55.046;38.838;2022-09-21T12:17:42;9.75;;;3.80;;
68455;SDS011;55437;55.046;38.838;2022-09-21T12:22:59;8.43;;;3.20;;
68455;SDS011;55437;55.046;38.838;2022-09-21T12:25:37;11.90;;;3.33;;
68455;SDS011;55437;55.046;38.838;2022-09-21T12:28:13;10.63;;;3.60;;
68455;SDS011;55437;55.046;38.838;2022-09-21T12:30:43;13.20;;;3.45;;
68455;SDS011;55437;55.046;38.838;2022-09-21T12:33:25;9.02;;;3.10;;
68455;SDS011;55437;55.046;38.838;2022-09-21T12:35:57;11.77;;;3.08;;
68455;SDS011;55437;55.046;38.838;2022-09-21T12:51:01;12.27;;;3.45;;
68455;SDS011;55437;55.046;38.838;2022-09-21T12:53:28;10.40;;;3.20;;
68455;SDS011;55437;55.046;38.838;2022-09-21T12:58:52;15.40;;;3.10;;
68455;SDS011;55437;55.046;38.838;2022-09-21T13:01:30;15.43;;;3.60;;
68455;SDS011;55437;55.046;38.838;2022-09-21T13:12:27;9.70;;;3.22;;
68455;SDS011;55437;55.046;38.838;2022-09-21T13:15:03;7.75;;;2.90;;
68455;SDS011;55437;55.046;38.838;2022-09-21T13:17:45;7.75;;;2.83;;
68455;SDS011;55437;55.046;38.838;2022-09-21T13:20:32;11.52;;;3.22;;
68455;SDS011;55437;55.046;38.838;2022-09-21T13:23:03;7.55;;;2.90;;
68455;SDS011;55437;55.046;38.838;2022-09-21T13:25:30;8.95;;;3.30;;
68455;SDS011;55437;55.046;38.838;2022-09-21T13:30:37;8.80;;;3.03;;
68455;SDS011;55437;55.046;38.838;2022-09-21T13:43:48;10.02;;;3.47;;
68455;SDS011;55437;55.046;38.838;2022-09-21T13:49:02;10.15;;;3.38;;
68455;SDS011;55437;55.046;38.838;2022-09-21T13:51:55;12.32;;;3.80;;
68455;SDS011;55437;55.046;38.838;2022-09-21T13:55:14;12.20;;;3.75;;
68455;SDS011;55437;55.046;38.838;2022-09-21T13:57:26;10.65;;;3.28;;
68455;SDS011;55437;55.046;38.838;2022-09-21T14:05:51;11.20;;;3.95;;
68455;SDS011;55437;55.046;38.838;2022-09-21T14:08:30;14.35;;;3.70;;
68455;SDS011;55437;55.046;38.838;2022-09-21T14:11:03;14.80;;;4.10;;
68455;SDS011;55437;55.046;38.838;2022-09-21T14:13:37;13.85;;;3.55;;
68455;SDS011;55437;55.046;38.838;2022-09-21T14:18:54;13.52;;;4.03;;
68455;SDS011;55437;55.046;38.838;2022-09-21T14:21:20;17.08;;;4.20;;
68455;SDS011;55437;55.046;38.838;2022-09-21T14:31:46;10.07;;;3.08;;
68455;SDS011;55437;55.046;38.838;2022-09-21T14:34:19;11.02;;;3.20;;
68455;SDS011;55437;55.046;38.838;2022-09-21T14:36:49;11.93;;;3.72;;
68455;SDS011;55437;55.046;38.838;2022-09-21T14:41:53;13.77;;;3.55;;
68455;SDS011;55437;55.046;38.838;2022-09-21T14:44:27;12.63;;;4.35;;
68455;SDS011;55437;55.046;38.838;2022-09-21T14:55:02;15.90;;;5.53;;
68455;SDS011;55437;55.046;38.838;2022-09-21T15:00:47;14.85;;;3.90;;
68455;SDS011;55437;55.046;38.838;2022-09-21T15:05:57;16.52;;;4.50;;
68455;SDS011;55437;55.046;38.838;2022-09-21T15:12:57;15.50;;;4.50;;
68455;SDS011;55437;55.046;38.838;2022-09-21T15:15:56;18.90;;;4.63;;
68455;SDS011;55437;55.046;38.838;2022-09-21T15:18:43;22.05;;;5.20;;
68455;SDS011;55437;55.046;38.838;2022-09-21T15:21:22;24.00;;;5.53;;
68455;SDS011;55437;55.046;38.838;2022-09-21T15:23:59;24.70;;;5.93;;
68455;SDS011;55437;55.046;38.838;2022-09-21T15:26:43;27.52;;;7.70;;
68455;SDS011;55437;55.046;38.838;2022-09-21T15:29:17;26.33;;;7.75;;
68455;SDS011;55437;55.046;38.838;2022-09-21T15:32:14;23.33;;;6.28;;
68455;SDS011;55437;55.046;38.838;2022-09-21T15:35:05;20.33;;;5.00;;
68455;SDS011;55437;55.046;38.838;2022-09-21T15:37:40;24.55;;;5.25;;
68455;SDS011;55437;55.046;38.838;2022-09-21T15:43:03;26.13;;;6.25;;
68455;SDS011;55437;55.046;38.838;2022-09-21T15:48:34;20.85;;;5.65;;
68455;SDS011;55437;55.046;38.838;2022-09-21T15:53:43;21.27;;;5.85;;
68455;SDS011;55437;55.046;38.838;2022-09-21T15:56:20;23.70;;;8.07;;
68455;SDS011;55437;55.046;38.838;2022-09-21T15:58:51;21.77;;;8.00;;
68455;SDS011;55437;55.046;38.838;2022-09-21T16:01:37;27.25;;;12.15;;
68455;SDS011;55437;55.046;38.838;2022-09-21T16:04:14;36.30;;;12.60;;
68455;SDS011;55437;55.046;38.838;2022-09-21T16:06:45;30.17;;;11.65;;
68455;SDS011;55437;55.046;38.838;2022-09-21T16:09:35;25.60;;;9.27;;
68455;SDS011;55437;55.046;38.838;2022-09-21T16:18:05;21.00;;;11.35;;
68455;SDS011;55437;55.046;38.838;2022-09-21T16:20:40;20.25;;;8.70;;
68455;SDS011;55437;55.046;38.838;2022-09-21T16:23:12;25.05;;;11.02;;
68455;SDS011;55437;55.046;38.838;2022-09-21T16:25:40;18.23;;;9.75;;
68455;SDS011;55437;55.046;38.838;2022-09-21T16:30:44;16.77;;;8.00;;
68455;SDS011;55437;55.046;38.838;2022-09-21T16:33:35;16.45;;;8.20;;
68455;SDS011;55437;55.046;38.838;2022-09-21T16:39:02;18.88;;;9.95;;
68455;SDS011;55437;55.046;38.838;2022-09-21T16:41:43;24.75;;;12.48;;
68455;SDS011;55437;55.046;38.838;2022-09-21T16:44:12;23.80;;;13.52;;
68455;SDS011;55437;55.046;38.838;2022-09-21T16:46:45;26.08;;;15.05;;
68455;SDS011;55437;55.046;38.838;2022-09-21T16:49:14;29.45;;;14.18;;
68455;SDS011;55437;55.046;38.838;2022-09-21T16:51:44;26.50;;;15.25;;
68455;SDS011;55437;55.046;38.838;2022-09-21T16:54:16;28.58;;;14.88;;
68455;SDS011;55437;55.046;38.838;2022-09-21T16:59:12;28.40;;;15.32;;
68455;SDS011;55437;55.046;38.838;2022-09-21T17:01:41;32.08;;;15.35;;
68455;SDS011;55437;55.046;38.838;2022-09-21T17:04:08;28.55;;;16.33;;
68455;SDS011;55437;55.046;38.838;2022-09-21T17:06:37;23.63;;;12.52;;
68455;SDS011;55437;55.046;38.838;2022-09-21T17:09:10;23.27;;;11.70;;
68455;SDS011;55437;55.046;38.838;2022-09-21T17:11:42;17.23;;;8.43;;
68455;SDS011;55437;55.046;38.838;2022-09-21T17:14:11;16.38;;;8.15;;
68455;SDS011;55437;55.046;38.838;2022-09-21T17:16:50;16.67;;;7.63;;
68455;SDS011;55437;55.046;38.838;2022-09-21T17:19:21;16.90;;;6.53;;
68455;SDS011;55437;55.046;38.838;2022-09-21T17:21:47;13.95;;;7.28;;
68455;SDS011;55437;55.046;38.838;2022-09-21T17:24:13;13.38;;;6.55;;
68455;SDS011;55437;55.046;38.838;2022-09-21T17:26:42;14.93;;;7.03;;
68455;SDS011;55437;55.046;38.838;2022-09-21T17:29:15;14.23;;;6.85;;
68455;SDS011;55437;55.046;38.838;2022-09-21T17:31:55;13.55;;;6.95;;
68455;SDS011;55437;55.046;38.838;2022-09-21T17:34:23;14.15;;;6.95;;
68455;SDS011;55437;55.046;38.838;2022-09-21T17:36:51;13.63;;;6.90;;
68455;SDS011;55437;55.046;38.838;2022-09-21T17:39:20;12.52;;;6.15;;
68455;SDS011;55437;55.046;38.838;2022-09-21T17:49:52;13.45;;;6.22;;
68455;SDS011;55437;55.046;38.838;2022-09-21T17:52:20;16.23;;;6.80;;
68455;SDS011;55437;55.046;38.838;2022-09-21T17:55:15;15.00;;;6.80;;
68455;SDS011;55437;55.046;38.838;2022-09-21T17:58:01;13.35;;;7.13;;
68455;SDS011;55437;55.046;38.838;2022-09-21T18:03:26;16.05;;;7.82;;
68455;SDS011;55437;55.046;38.838;2022-09-21T18:06:14;14.30;;;6.78;;
68455;SDS011;55437;55.046;38.838;2022-09-21T18:08:43;14.95;;;7.28;;
68455;SDS011;55437;55.046;38.838;2022-09-21T18:23:13;21.40;;;9.35;;
68455;SDS011;55437;55.046;38.838;2022-09-21T18:25:51;19.27;;;8.80;;
68455;SDS011;55437;55.046;38.838;2022-09-21T18:31:17;29.30;;;7.65;;
68455;SDS011;55437;55.046;38.838;2022-09-21T18:45:02;25.95;;;11.57;;
68455;SDS011;55437;55.046;38.838;2022-09-21T18:48:24;27.98;;;10.25;;
68455;SDS011;55437;55.046;38.838;2022-09-21T18:56:13;17.02;;;7.70;;
68455;SDS011;55437;55.046;38.838;2022-09-21T18:58:40;17.40;;;7.43;;
68455;SDS011;55437;55.046;38.838;2022-09-21T19:01:09;14.65;;;7.32;;
68455;SDS011;55437;55.046;38.838;2022-09-21T19:03:37;14.02;;;7.00;;
68455;SDS011;55437;55.046;38.838;2022-09-21T19:06:25;15.77;;;6.80;;
68455;SDS011;55437;55.046;38.838;2022-09-21T19:11:48;15.45;;;6.55;;
68455;SDS011;55437;55.046;38.838;2022-09-21T19:22:52;13.02;;;5.53;;
68455;SDS011;55437;55.046;38.838;2022-09-21T19:25:37;13.63;;;6.93;;
68455;SDS011;55437;55.046;38.838;2022-09-21T19:31:01;13.18;;;5.93;;
68455;SDS011;55437;55.046;38.838;2022-09-21T19:33:32;12.65;;;5.88;;
68455;SDS011;55437;55.046;38.838;2022-09-21T19:35:58;13.73;;;6.72;;
68455;SDS011;55437;55.046;38.838;2022-09-21T19:38:26;13.38;;;6.03;;
68455;SDS011;55437;55.046;38.838;2022-09-21T19:41:03;12.75;;;6.43;;
68455;SDS011;55437;55.046;38.838;2022-09-21T19:43:37;13.05;;;5.93;;
68455;SDS011;55437;55.046;38.838;2022-09-21T19:48:48;15.10;;;6.95;;
68455;SDS011;55437;55.046;38.838;2022-09-21T19:51:35;16.17;;;7.60;;
68455;SDS011;55437;55.046;38.838;2022-09-21T19:54:09;20.83;;;7.90;;
68455;SDS011;55437;55.046;38.838;2022-09-21T19:56:57;21.00;;;7.28;;